sensor_id;sensor_type;location;lat;lon;timestamp;temperature;humidity
4207;DHT22;2117;47.972;7.830;2023-09-18T01:02:13;18.60;99.90
4207;DHT22;2117;47.972;7.830;2023-09-18T01:04:39;18.60;99.90
4207;DHT22;2117;47.972;7.830;2023-09-18T01:07:09;18.70;99.90
4207;DHT22;2117;47.972;7.830;2023-09-18T01:09:35;18.70;99.90
4207;DHT22;2117;47.972;7.830;2023-09-18T01:12:08;18.70;99.90
4207;DHT22;2117;47.972;7.830;2023-09-18T01:17:09;18.70;99.90
4207;DHT22;2117;47.972;7.830;2023-09-18T01:19:44;18.70;99.90
4207;DHT22;2117;47.972;7.830;2023-09-18T01:22:11;18.70;99.90
4207;DHT22;2117;47.972;7.830;2023-09-18T01:24:39;18.70;99.90
4207;DHT22;2117;47.972;7.830;2023-09-18T01:27:07;18.70;99.90
4207;DHT22;2117;47.972;7.830;2023-09-18T01:29:32;18.70;99.90
4207;DHT22;2117;47.972;7.830;2023-09-18T01:31:58;18.70;99.90
4207;DHT22;2117;47.972;7.830;2023-09-18T01:34:31;18.70;99.90
4207;DHT22;2117;47.972;7.830;2023-09-18T01:36:59;18.70;99.90
4207;DHT22;2117;47.972;7.830;2023-09-18T01:39:27;18.70;99.90
4207;DHT22;2117;47.972;7.830;2023-09-18T01:41:58;18.70;99.90
4207;DHT22;2117;47.972;7.830;2023-09-18T01:44:24;18.70;99.90
4207;DHT22;2117;47.972;7.830;2023-09-18T01:46:51;18.80;99.90
4207;DHT22;2117;47.972;7.830;2023-09-18T01:49:35;18.80;99.90
4207;DHT22;2117;47.972;7.830;2023-09-18T01:52:02;18.80;99.90
4207;DHT22;2117;47.972;7.830;2023-09-18T01:54:29;18.80;99.90
4207;DHT22;2117;47.972;7.830;2023-09-18T01:56:54;18.80;99.90
4207;DHT22;2117;47.972;7.830;2023-09-18T01:59:21;18.80;99.90
4207;DHT22;2117;47.972;7.830;2023-09-18T02:01:48;18.80;99.90
4207;DHT22;2117;47.972;7.830;2023-09-18T02:06:39;18.80;99.90
4207;DHT22;2117;47.972;7.830;2023-09-18T02:09:06;18.80;99.90
4207;DHT22;2117;47.972;7.830;2023-09-18T02:11:42;18.80;99.90
4207;DHT22;2117;47.972;7.830;2023-09-18T02:14:09;18.80;99.90
4207;DHT22;2117;47.972;7.830;2023-09-18T02:16:39;18.80;99.90
4207;DHT22;2117;47.972;7.830;2023-09-18T02:19:13;18.90;99.90
4207;DHT22;2117;47.972;7.830;2023-09-18T02:21:39;18.90;99.90
4207;DHT22;2117;47.972;7.830;2023-09-18T02:24:05;18.90;99.90
4207;DHT22;2117;47.972;7.830;2023-09-18T02:26:30;18.90;99.90
4207;DHT22;2117;47.972;7.830;2023-09-18T02:28:59;19.00;99.90
4207;DHT22;2117;47.972;7.830;2023-09-18T02:31:25;19.10;99.90
4207;DHT22;2117;47.972;7.830;2023-09-18T02:33:51;19.20;99.90
4207;DHT22;2117;47.972;7.830;2023-09-18T02:36:16;19.20;99.90
4207;DHT22;2117;47.972;7.830;2023-09-18T02:38:42;19.20;99.90
4207;DHT22;2117;47.972;7.830;2023-09-18T02:41:08;19.20;99.90
4207;DHT22;2117;47.972;7.830;2023-09-18T02:43:34;19.10;99.90
4207;DHT22;2117;47.972;7.830;2023-09-18T02:46:00;19.00;99.90
4207;DHT22;2117;47.972;7.830;2023-09-18T02:48:25;18.90;99.90
4207;DHT22;2117;47.972;7.830;2023-09-18T02:50:51;18.80;99.90
4207;DHT22;2117;47.972;7.830;2023-09-18T02:53:21;18.80;99.90
4207;DHT22;2117;47.972;7.830;2023-09-18T02:55:54;18.70;99.90
4207;DHT22;2117;47.972;7.830;2023-09-18T02:58:21;18.60;99.90
4207;DHT22;2117;47.972;7.830;2023-09-18T03:00:49;18.50;99.90
4207;DHT22;2117;47.972;7.830;2023-09-18T03:03:15;18.50;99.90
4207;DHT22;2117;47.972;7.830;2023-09-18T03:05:41;18.40;99.90
4207;DHT22;2117;47.972;7.830;2023-09-18T03:08:08;18.40;99.90
4207;DHT22;2117;47.972;7.830;2023-09-18T03:10:40;18.40;99.90
4207;DHT22;2117;47.972;7.830;2023-09-18T03:13:08;18.30;99.90
4207;DHT22;2117;47.972;7.830;2023-09-18T03:15:34;18.30;99.90
4207;DHT22;2117;47.972;7.830;2023-09-18T03:18:02;18.30;99.90
4207;DHT22;2117;47.972;7.830;2023-09-18T03:20:29;18.30;99.90
4207;DHT22;2117;47.972;7.830;2023-09-18T03:22:56;18.30;99.90
4207;DHT22;2117;47.972;7.830;2023-09-18T03:25:23;18.20;99.90
4207;DHT22;2117;47.972;7.830;2023-09-18T03:27:51;18.20;99.90
4207;DHT22;2117;47.972;7.830;2023-09-18T03:30:18;18.30;99.90
4207;DHT22;2117;47.972;7.830;2023-09-18T03:32:44;18.20;99.90
4207;DHT22;2117;47.972;7.830;2023-09-18T03:35:10;18.10;99.90
4207;DHT22;2117;47.972;7.830;2023-09-18T03:37:43;18.10;99.90
4207;DHT22;2117;47.972;7.830;2023-09-18T03:40:09;18.10;99.90
4207;DHT22;2117;47.972;7.830;2023-09-18T03:42:35;18.10;99.90
4207;DHT22;2117;47.972;7.830;2023-09-18T03:45:00;18.10;99.90
4207;DHT22;2117;47.972;7.830;2023-09-18T03:47:26;18.10;99.90
4207;DHT22;2117;47.972;7.830;2023-09-18T03:49:51;18.10;99.90
4207;DHT22;2117;47.972;7.830;2023-09-18T03:52:17;18.10;99.90
4207;DHT22;2117;47.972;7.830;2023-09-18T03:54:42;18.10;99.90
4207;DHT22;2117;47.972;7.830;2023-09-18T03:57:08;18.00;99.90
4207;DHT22;2117;47.972;7.830;2023-09-18T03:59:33;17.90;99.90
4207;DHT22;2117;47.972;7.830;2023-09-18T04:01:59;17.90;99.90
4207;DHT22;2117;47.972;7.830;2023-09-18T04:04:24;17.90;99.90
4207;DHT22;2117;47.972;7.830;2023-09-18T04:06:50;17.90;99.90
4207;DHT22;2117;47.972;7.830;2023-09-18T04:09:15;17.90;99.90
4207;DHT22;2117;47.972;7.830;2023-09-18T04:11:41;17.90;99.90
4207;DHT22;2117;47.972;7.830;2023-09-18T04:14:07;17.90;99.90
4207;DHT22;2117;47.972;7.830;2023-09-18T04:16:32;17.90;99.90
4207;DHT22;2117;47.972;7.830;2023-09-18T04:19:02;17.80;99.90
4207;DHT22;2117;47.972;7.830;2023-09-18T04:21:28;17.80;99.90
4207;DHT22;2117;47.972;7.830;2023-09-18T04:23:55;17.80;99.90
4207;DHT22;2117;47.972;7.830;2023-09-18T04:26:26;17.80;99.90
4207;DHT22;2117;47.972;7.830;2023-09-18T04:28:59;17.70;99.90
4207;DHT22;2117;47.972;7.830;2023-09-18T04:31:25;17.70;99.90
4207;DHT22;2117;47.972;7.830;2023-09-18T04:33:51;17.70;99.90
4207;DHT22;2117;47.972;7.830;2023-09-18T04:36:16;17.70;99.90
4207;DHT22;2117;47.972;7.830;2023-09-18T04:38:42;17.80;99.90
4207;DHT22;2117;47.972;7.830;2023-09-18T04:41:07;17.80;99.90
4207;DHT22;2117;47.972;7.830;2023-09-18T04:43:34;17.80;99.90
4207;DHT22;2117;47.972;7.830;2023-09-18T04:46:00;17.90;99.90
4207;DHT22;2117;47.972;7.830;2023-09-18T04:48:29;17.80;99.90
4207;DHT22;2117;47.972;7.830;2023-09-18T04:50:55;17.80;99.90
4207;DHT22;2117;47.972;7.830;2023-09-18T04:53:21;17.90;99.90
4207;DHT22;2117;47.972;7.830;2023-09-18T04:55:46;17.90;99.90
4207;DHT22;2117;47.972;7.830;2023-09-18T04:58:15;17.90;99.90
4207;DHT22;2117;47.972;7.830;2023-09-18T05:00:41;17.90;99.90
4207;DHT22;2117;47.972;7.830;2023-09-18T05:03:07;17.80;99.90
4207;DHT22;2117;47.972;7.830;2023-09-18T05:05:34;17.80;99.90
4207;DHT22;2117;47.972;7.830;2023-09-18T05:08:01;17.80;99.90
4207;DHT22;2117;47.972;7.830;2023-09-18T05:10:26;17.80;99.90
4207;DHT22;2117;47.972;7.830;2023-09-18T05:12:52;17.80;99.90
4207;DHT22;2117;47.972;7.830;2023-09-18T05:15:24;17.80;99.90
4207;DHT22;2117;47.972;7.830;2023-09-18T05:17:51;17.80;99.90
4207;DHT22;2117;47.972;7.830;2023-09-18T05:20:21;17.90;99.90
4207;DHT22;2117;47.972;7.830;2023-09-18T05:22:50;17.90;99.90
4207;DHT22;2117;47.972;7.830;2023-09-18T05:25:18;17.90;99.90
4207;DHT22;2117;47.972;7.830;2023-09-18T05:27:44;17.90;99.90
4207;DHT22;2117;47.972;7.830;2023-09-18T05:30:19;17.90;99.90
4207;DHT22;2117;47.972;7.830;2023-09-18T05:32:47;17.90;99.90
4207;DHT22;2117;47.972;7.830;2023-09-18T05:35:14;17.80;99.90
4207;DHT22;2117;47.972;7.830;2023-09-18T05:37:40;17.80;99.90
4207;DHT22;2117;47.972;7.830;2023-09-18T05:40:08;17.80;99.90
4207;DHT22;2117;47.972;7.830;2023-09-18T05:42:43;17.70;99.90
4207;DHT22;2117;47.972;7.830;2023-09-18T05:45:09;17.70;99.90
4207;DHT22;2117;47.972;7.830;2023-09-18T05:47:35;17.80;99.90
4207;DHT22;2117;47.972;7.830;2023-09-18T05:50:02;17.80;99.90
4207;DHT22;2117;47.972;7.830;2023-09-18T05:52:30;17.80;99.90
4207;DHT22;2117;47.972;7.830;2023-09-18T05:54:55;17.80;99.90
4207;DHT22;2117;47.972;7.830;2023-09-18T05:57:21;17.80;99.90
4207;DHT22;2117;47.972;7.830;2023-09-18T05:59:47;17.80;99.90
4207;DHT22;2117;47.972;7.830;2023-09-18T06:02:13;17.80;99.90
4207;DHT22;2117;47.972;7.830;2023-09-18T06:04:38;17.80;99.90
4207;DHT22;2117;47.972;7.830;2023-09-18T06:07:04;17.80;99.90
4207;DHT22;2117;47.972;7.830;2023-09-18T06:09:30;17.80;99.90
4207;DHT22;2117;47.972;7.830;2023-09-18T06:11:55;17.80;99.90
4207;DHT22;2117;47.972;7.830;2023-09-18T06:14:21;17.80;99.90
4207;DHT22;2117;47.972;7.830;2023-09-18T06:16:47;17.80;99.90
4207;DHT22;2117;47.972;7.830;2023-09-18T06:19:13;17.70;99.90
4207;DHT22;2117;47.972;7.830;2023-09-18T06:21:38;17.70;99.90
4207;DHT22;2117;47.972;7.830;2023-09-18T06:24:04;17.70;99.90
4207;DHT22;2117;47.972;7.830;2023-09-18T06:26:30;17.70;99.90
4207;DHT22;2117;47.972;7.830;2023-09-18T06:28:55;17.70;99.90
4207;DHT22;2117;47.972;7.830;2023-09-18T06:31:21;17.70;99.90
4207;DHT22;2117;47.972;7.830;2023-09-18T06:33:48;17.70;99.90
4207;DHT22;2117;47.972;7.830;2023-09-18T06:36:14;17.70;99.90
4207;DHT22;2117;47.972;7.830;2023-09-18T06:38:40;17.70;99.90
4207;DHT22;2117;47.972;7.830;2023-09-18T06:41:05;17.80;99.90
4207;DHT22;2117;47.972;7.830;2023-09-18T06:43:31;17.80;99.90
4207;DHT22;2117;47.972;7.830;2023-09-18T06:45:56;17.80;99.90
4207;DHT22;2117;47.972;7.830;2023-09-18T06:48:24;17.90;99.90
4207;DHT22;2117;47.972;7.830;2023-09-18T06:50:49;17.90;99.90
4207;DHT22;2117;47.972;7.830;2023-09-18T06:53:15;17.90;99.90
4207;DHT22;2117;47.972;7.830;2023-09-18T06:55:40;17.90;99.90
4207;DHT22;2117;47.972;7.830;2023-09-18T06:58:06;17.90;99.90
4207;DHT22;2117;47.972;7.830;2023-09-18T07:00:32;17.90;99.90
4207;DHT22;2117;47.972;7.830;2023-09-18T07:02:57;17.90;99.90
4207;DHT22;2117;47.972;7.830;2023-09-18T07:05:23;17.90;99.90
4207;DHT22;2117;47.972;7.830;2023-09-18T07:07:48;17.90;99.90
4207;DHT22;2117;47.972;7.830;2023-09-18T07:10:14;17.90;99.90
4207;DHT22;2117;47.972;7.830;2023-09-18T07:12:39;17.90;99.90
4207;DHT22;2117;47.972;7.830;2023-09-18T07:15:06;17.90;99.90
4207;DHT22;2117;47.972;7.830;2023-09-18T07:17:32;17.90;99.90
4207;DHT22;2117;47.972;7.830;2023-09-18T07:19:58;17.90;99.90
4207;DHT22;2117;47.972;7.830;2023-09-18T07:22:24;17.80;99.90
4207;DHT22;2117;47.972;7.830;2023-09-18T07:24:50;17.80;99.90
4207;DHT22;2117;47.972;7.830;2023-09-18T07:27:15;17.80;99.90
4207;DHT22;2117;47.972;7.830;2023-09-18T07:32:08;17.70;99.90
4207;DHT22;2117;47.972;7.830;2023-09-18T07:34:35;17.80;99.90
4207;DHT22;2117;47.972;7.830;2023-09-18T07:37:00;17.80;99.90
4207;DHT22;2117;47.972;7.830;2023-09-18T07:39:26;17.90;99.90
4207;DHT22;2117;47.972;7.830;2023-09-18T07:41:52;17.90;99.90
4207;DHT22;2117;47.972;7.830;2023-09-18T07:44:21;17.90;99.90
4207;DHT22;2117;47.972;7.830;2023-09-18T07:46:47;17.90;99.90
4207;DHT22;2117;47.972;7.830;2023-09-18T07:49:13;17.90;99.90
4207;DHT22;2117;47.972;7.830;2023-09-18T07:54:07;17.90;99.90
4207;DHT22;2117;47.972;7.830;2023-09-18T07:56:32;17.90;99.90
4207;DHT22;2117;47.972;7.830;2023-09-18T07:58:59;17.90;99.90
4207;DHT22;2117;47.972;7.830;2023-09-18T08:01:25;17.90;99.90
4207;DHT22;2117;47.972;7.830;2023-09-18T08:06:17;17.90;99.90
4207;DHT22;2117;47.972;7.830;2023-09-18T08:08:45;17.90;99.90
4207;DHT22;2117;47.972;7.830;2023-09-18T08:11:11;18.00;99.90
4207;DHT22;2117;47.972;7.830;2023-09-18T08:13:37;17.90;99.90
4207;DHT22;2117;47.972;7.830;2023-09-18T08:16:05;18.00;99.90
4207;DHT22;2117;47.972;7.830;2023-09-18T08:20:57;18.00;99.90
4207;DHT22;2117;47.972;7.830;2023-09-18T08:23:24;17.90;99.90
4207;DHT22;2117;47.972;7.830;2023-09-18T08:25:50;17.80;99.90
4207;DHT22;2117;47.972;7.830;2023-09-18T08:28:17;17.70;99.90
4207;DHT22;2117;47.972;7.830;2023-09-18T08:30:42;17.80;99.90
4207;DHT22;2117;47.972;7.830;2023-09-18T08:35:38;17.80;99.90
4207;DHT22;2117;47.972;7.830;2023-09-18T08:38:05;17.70;99.90
4207;DHT22;2117;47.972;7.830;2023-09-18T08:40:30;17.70;99.90
4207;DHT22;2117;47.972;7.830;2023-09-18T08:42:56;17.70;99.90
4207;DHT22;2117;47.972;7.830;2023-09-18T08:45:54;17.80;99.90
4207;DHT22;2117;47.972;7.830;2023-09-18T08:48:21;17.80;99.90
4207;DHT22;2117;47.972;7.830;2023-09-18T08:50:50;17.80;99.90
4207;DHT22;2117;47.972;7.830;2023-09-18T08:53:16;17.90;99.90
4207;DHT22;2117;47.972;7.830;2023-09-18T08:55:42;17.80;99.90
4207;DHT22;2117;47.972;7.830;2023-09-18T08:58:08;17.80;99.90
4207;DHT22;2117;47.972;7.830;2023-09-18T09:00:36;17.70;99.90
4207;DHT22;2117;47.972;7.830;2023-09-18T09:03:03;17.70;99.90
4207;DHT22;2117;47.972;7.830;2023-09-18T09:05:30;17.80;99.90
4207;DHT22;2117;47.972;7.830;2023-09-18T09:07:56;17.70;99.90
4207;DHT22;2117;47.972;7.830;2023-09-18T09:12:58;17.70;99.90
4207;DHT22;2117;47.972;7.830;2023-09-18T09:15:29;17.70;99.90
4207;DHT22;2117;47.972;7.830;2023-09-18T09:18:07;17.80;99.90
4207;DHT22;2117;47.972;7.830;2023-09-18T09:20:34;17.90;99.90
4207;DHT22;2117;47.972;7.830;2023-09-18T09:23:05;17.90;99.90
4207;DHT22;2117;47.972;7.830;2023-09-18T09:25:32;17.90;99.90
4207;DHT22;2117;47.972;7.830;2023-09-18T09:27:59;17.90;99.90
4207;DHT22;2117;47.972;7.830;2023-09-18T09:30:27;18.00;99.90
4207;DHT22;2117;47.972;7.830;2023-09-18T09:32:56;18.00;99.90
4207;DHT22;2117;47.972;7.830;2023-09-18T09:35:33;18.00;99.90
4207;DHT22;2117;47.972;7.830;2023-09-18T09:38:08;18.00;99.90
4207;DHT22;2117;47.972;7.830;2023-09-18T09:40:34;18.20;99.90
4207;DHT22;2117;47.972;7.830;2023-09-18T09:43:01;18.20;99.90
4207;DHT22;2117;47.972;7.830;2023-09-18T09:45:29;18.20;99.90
4207;DHT22;2117;47.972;7.830;2023-09-18T09:47:56;18.20;99.90
4207;DHT22;2117;47.972;7.830;2023-09-18T09:50:22;18.30;99.90
4207;DHT22;2117;47.972;7.830;2023-09-18T09:52:52;18.30;99.90
4207;DHT22;2117;47.972;7.830;2023-09-18T09:55:31;18.30;99.90
4207;DHT22;2117;47.972;7.830;2023-09-18T09:58:01;18.30;99.90
4207;DHT22;2117;47.972;7.830;2023-09-18T10:00:32;18.30;99.90
4207;DHT22;2117;47.972;7.830;2023-09-18T10:03:16;18.30;99.90
4207;DHT22;2117;47.972;7.830;2023-09-18T10:05:44;18.30;99.90
4207;DHT22;2117;47.972;7.830;2023-09-18T10:08:16;18.40;99.90
4207;DHT22;2117;47.972;7.830;2023-09-18T10:10:47;18.50;99.90
4207;DHT22;2117;47.972;7.830;2023-09-18T10:13:40;18.50;99.90
4207;DHT22;2117;47.972;7.830;2023-09-18T10:16:07;18.50;99.90
4207;DHT22;2117;47.972;7.830;2023-09-18T10:18:49;18.60;99.90
4207;DHT22;2117;47.972;7.830;2023-09-18T10:27:00;18.70;99.90
4207;DHT22;2117;47.972;7.830;2023-09-18T10:29:29;18.80;99.90
4207;DHT22;2117;47.972;7.830;2023-09-18T10:31:55;18.80;99.90
4207;DHT22;2117;47.972;7.830;2023-09-18T10:34:24;18.90;99.90
4207;DHT22;2117;47.972;7.830;2023-09-18T10:36:51;18.90;99.90
4207;DHT22;2117;47.972;7.830;2023-09-18T10:39:17;19.00;99.90
4207;DHT22;2117;47.972;7.830;2023-09-18T10:41:52;19.20;99.90
4207;DHT22;2117;47.972;7.830;2023-09-18T10:44:18;19.20;99.90
4207;DHT22;2117;47.972;7.830;2023-09-18T10:46:48;19.30;99.90
4207;DHT22;2117;47.972;7.830;2023-09-18T10:49:15;19.40;99.90
4207;DHT22;2117;47.972;7.830;2023-09-18T10:51:41;19.50;99.90
4207;DHT22;2117;47.972;7.830;2023-09-18T10:54:09;19.60;99.90
4207;DHT22;2117;47.972;7.830;2023-09-18T10:56:34;19.70;99.90
4207;DHT22;2117;47.972;7.830;2023-09-18T10:59:01;19.90;99.90
4207;DHT22;2117;47.972;7.830;2023-09-18T11:01:29;20.00;99.90
4207;DHT22;2117;47.972;7.830;2023-09-18T11:04:01;20.10;99.90
4207;DHT22;2117;47.972;7.830;2023-09-18T11:06:27;20.10;99.90
4207;DHT22;2117;47.972;7.830;2023-09-18T11:09:02;20.20;99.90
4207;DHT22;2117;47.972;7.830;2023-09-18T11:11:29;20.20;99.90
4207;DHT22;2117;47.972;7.830;2023-09-18T11:13:58;20.30;99.90
4207;DHT22;2117;47.972;7.830;2023-09-18T11:21:28;20.70;99.90
4207;DHT22;2117;47.972;7.830;2023-09-18T11:24:24;20.60;99.90
4207;DHT22;2117;47.972;7.830;2023-09-18T11:26:50;20.60;99.90
4207;DHT22;2117;47.972;7.830;2023-09-18T11:29:22;20.80;99.90
4207;DHT22;2117;47.972;7.830;2023-09-18T11:31:53;20.80;99.90
4207;DHT22;2117;47.972;7.830;2023-09-18T11:36:48;21.00;99.90
4207;DHT22;2117;47.972;7.830;2023-09-18T11:39:14;21.00;99.90
4207;DHT22;2117;47.972;7.830;2023-09-18T11:42:07;21.00;99.90
4207;DHT22;2117;47.972;7.830;2023-09-18T11:44:33;21.10;99.90
4207;DHT22;2117;47.972;7.830;2023-09-18T11:49:26;21.20;99.90
4207;DHT22;2117;47.972;7.830;2023-09-18T11:51:53;21.30;99.90
4207;DHT22;2117;47.972;7.830;2023-09-18T11:54:19;21.30;99.90
4207;DHT22;2117;47.972;7.830;2023-09-18T11:56:46;21.40;99.90
4207;DHT22;2117;47.972;7.830;2023-09-18T12:01:38;21.40;99.90
4207;DHT22;2117;47.972;7.830;2023-09-18T12:04:12;21.40;99.90
4207;DHT22;2117;47.972;7.830;2023-09-18T12:06:41;21.40;99.90
4207;DHT22;2117;47.972;7.830;2023-09-18T12:09:08;21.50;99.90
4207;DHT22;2117;47.972;7.830;2023-09-18T12:11:41;21.50;99.90
4207;DHT22;2117;47.972;7.830;2023-09-18T12:14:07;21.50;99.90
4207;DHT22;2117;47.972;7.830;2023-09-18T12:16:39;21.60;99.90
4207;DHT22;2117;47.972;7.830;2023-09-18T12:19:05;21.60;99.90
4207;DHT22;2117;47.972;7.830;2023-09-18T12:21:32;21.70;99.90
4207;DHT22;2117;47.972;7.830;2023-09-18T12:23:58;21.70;99.90
4207;DHT22;2117;47.972;7.830;2023-09-18T12:26:25;21.70;99.90
4207;DHT22;2117;47.972;7.830;2023-09-18T12:28:51;21.70;99.90
4207;DHT22;2117;47.972;7.830;2023-09-18T12:31:17;21.90;99.90
4207;DHT22;2117;47.972;7.830;2023-09-18T12:33:43;21.90;99.90
4207;DHT22;2117;47.972;7.830;2023-09-18T12:36:09;22.00;99.90
4207;DHT22;2117;47.972;7.830;2023-09-18T12:38:36;22.20;99.90
4207;DHT22;2117;47.972;7.830;2023-09-18T12:41:03;22.30;99.90
4207;DHT22;2117;47.972;7.830;2023-09-18T12:43:49;22.30;99.90
4207;DHT22;2117;47.972;7.830;2023-09-18T12:46:15;22.40;99.90
4207;DHT22;2117;47.972;7.830;2023-09-18T12:48:41;22.80;99.90
4207;DHT22;2117;47.972;7.830;2023-09-18T12:51:10;22.90;99.90
4207;DHT22;2117;47.972;7.830;2023-09-18T12:53:36;23.10;99.90
4207;DHT22;2117;47.972;7.830;2023-09-18T12:56:12;22.80;99.90
4207;DHT22;2117;47.972;7.830;2023-09-18T12:58:42;22.80;99.90
4207;DHT22;2117;47.972;7.830;2023-09-18T13:01:09;23.00;99.90
4207;DHT22;2117;47.972;7.830;2023-09-18T13:03:41;23.10;99.90
4207;DHT22;2117;47.972;7.830;2023-09-18T13:06:11;23.20;99.90
4207;DHT22;2117;47.972;7.830;2023-09-18T13:08:38;23.20;99.90
4207;DHT22;2117;47.972;7.830;2023-09-18T13:11:03;23.20;99.90
4207;DHT22;2117;47.972;7.830;2023-09-18T13:13:29;23.20;99.90
4207;DHT22;2117;47.972;7.830;2023-09-18T13:15:59;23.20;99.90
4207;DHT22;2117;47.972;7.830;2023-09-18T13:18:26;23.20;99.90
4207;DHT22;2117;47.972;7.830;2023-09-18T13:20:53;23.20;99.90
4207;DHT22;2117;47.972;7.830;2023-09-18T13:23:19;23.20;99.90
4207;DHT22;2117;47.972;7.830;2023-09-18T13:25:45;23.10;99.90
4207;DHT22;2117;47.972;7.830;2023-09-18T13:28:13;23.10;99.90
4207;DHT22;2117;47.972;7.830;2023-09-18T13:30:41;22.90;99.90
4207;DHT22;2117;47.972;7.830;2023-09-18T13:33:12;22.90;99.90
4207;DHT22;2117;47.972;7.830;2023-09-18T13:35:39;22.90;99.90
4207;DHT22;2117;47.972;7.830;2023-09-18T13:38:06;22.90;99.90
4207;DHT22;2117;47.972;7.830;2023-09-18T13:40:36;22.90;99.90
4207;DHT22;2117;47.972;7.830;2023-09-18T13:43:03;23.00;99.90
4207;DHT22;2117;47.972;7.830;2023-09-18T13:45:30;22.90;99.90
4207;DHT22;2117;47.972;7.830;2023-09-18T13:47:55;23.00;99.90
4207;DHT22;2117;47.972;7.830;2023-09-18T13:50:21;23.10;99.90
4207;DHT22;2117;47.972;7.830;2023-09-18T13:52:47;23.30;99.90
4207;DHT22;2117;47.972;7.830;2023-09-18T13:55:12;23.30;99.90
4207;DHT22;2117;47.972;7.830;2023-09-18T13:57:38;23.30;99.90
4207;DHT22;2117;47.972;7.830;2023-09-18T14:00:06;23.40;99.90
4207;DHT22;2117;47.972;7.830;2023-09-18T14:02:33;23.50;99.90
4207;DHT22;2117;47.972;7.830;2023-09-18T14:04:59;23.50;99.90
4207;DHT22;2117;47.972;7.830;2023-09-18T14:07:24;23.40;99.90
4207;DHT22;2117;47.972;7.830;2023-09-18T14:09:50;23.30;99.90
4207;DHT22;2117;47.972;7.830;2023-09-18T14:12:16;23.30;99.90
4207;DHT22;2117;47.972;7.830;2023-09-18T14:14:44;23.20;99.90
4207;DHT22;2117;47.972;7.830;2023-09-18T14:17:10;23.20;99.90
4207;DHT22;2117;47.972;7.830;2023-09-18T14:19:36;23.20;99.90
4207;DHT22;2117;47.972;7.830;2023-09-18T14:22:07;23.20;99.90
4207;DHT22;2117;47.972;7.830;2023-09-18T14:24:33;23.20;99.90
4207;DHT22;2117;47.972;7.830;2023-09-18T14:27:08;23.50;99.90
4207;DHT22;2117;47.972;7.830;2023-09-18T14:29:34;23.80;99.90
4207;DHT22;2117;47.972;7.830;2023-09-18T14:32:00;24.20;99.90
4207;DHT22;2117;47.972;7.830;2023-09-18T14:34:26;24.50;99.90
4207;DHT22;2117;47.972;7.830;2023-09-18T14:36:51;24.60;99.90
4207;DHT22;2117;47.972;7.830;2023-09-18T14:39:17;24.60;99.90
4207;DHT22;2117;47.972;7.830;2023-09-18T14:41:43;24.50;99.90
4207;DHT22;2117;47.972;7.830;2023-09-18T14:44:09;24.50;99.90
4207;DHT22;2117;47.972;7.830;2023-09-18T14:46:36;24.40;99.90
4207;DHT22;2117;47.972;7.830;2023-09-18T14:49:05;24.30;99.90
4207;DHT22;2117;47.972;7.830;2023-09-18T14:51:33;24.10;99.90
4207;DHT22;2117;47.972;7.830;2023-09-18T14:53:59;24.00;99.90
4207;DHT22;2117;47.972;7.830;2023-09-18T14:56:24;24.10;99.90
4207;DHT22;2117;47.972;7.830;2023-09-18T14:58:50;24.20;99.90
4207;DHT22;2117;47.972;7.830;2023-09-18T15:01:18;24.10;99.90
4207;DHT22;2117;47.972;7.830;2023-09-18T15:03:44;24.00;99.90
4207;DHT22;2117;47.972;7.830;2023-09-18T15:06:10;24.00;99.90
4207;DHT22;2117;47.972;7.830;2023-09-18T15:08:36;23.90;99.90
4207;DHT22;2117;47.972;7.830;2023-09-18T15:11:01;23.90;99.90
4207;DHT22;2117;47.972;7.830;2023-09-18T15:13:29;23.70;99.90
4207;DHT22;2117;47.972;7.830;2023-09-18T15:15:55;23.70;99.90
4207;DHT22;2117;47.972;7.830;2023-09-18T15:18:21;23.60;99.90
4207;DHT22;2117;47.972;7.830;2023-09-18T15:20:46;23.60;99.90
4207;DHT22;2117;47.972;7.830;2023-09-18T15:23:13;23.50;99.90
4207;DHT22;2117;47.972;7.830;2023-09-18T15:25:39;23.50;99.90
4207;DHT22;2117;47.972;7.830;2023-09-18T15:28:07;23.50;99.90
4207;DHT22;2117;47.972;7.830;2023-09-18T15:30:33;23.40;99.90
4207;DHT22;2117;47.972;7.830;2023-09-18T15:32:58;23.30;99.90
4207;DHT22;2117;47.972;7.830;2023-09-18T15:35:25;23.20;99.90
4207;DHT22;2117;47.972;7.830;2023-09-18T15:37:51;23.10;99.90
4207;DHT22;2117;47.972;7.830;2023-09-18T15:40:20;23.10;99.90
4207;DHT22;2117;47.972;7.830;2023-09-18T15:42:48;23.00;99.90
4207;DHT22;2117;47.972;7.830;2023-09-18T15:45:13;22.90;99.90
4207;DHT22;2117;47.972;7.830;2023-09-18T15:47:40;22.90;99.90
4207;DHT22;2117;47.972;7.830;2023-09-18T15:50:08;22.80;99.90
4207;DHT22;2117;47.972;7.830;2023-09-18T15:52:35;22.80;99.90
4207;DHT22;2117;47.972;7.830;2023-09-18T15:55:01;22.80;99.90
4207;DHT22;2117;47.972;7.830;2023-09-18T15:57:32;22.80;99.90
4207;DHT22;2117;47.972;7.830;2023-09-18T15:59:59;22.70;99.90
4207;DHT22;2117;47.972;7.830;2023-09-18T16:02:25;22.60;99.90
4207;DHT22;2117;47.972;7.830;2023-09-18T16:04:52;22.60;99.90
4207;DHT22;2117;47.972;7.830;2023-09-18T16:07:20;22.60;99.90
4207;DHT22;2117;47.972;7.830;2023-09-18T16:09:45;22.50;99.90
4207;DHT22;2117;47.972;7.830;2023-09-18T16:12:11;22.50;99.90
4207;DHT22;2117;47.972;7.830;2023-09-18T16:14:37;22.50;99.90
4207;DHT22;2117;47.972;7.830;2023-09-18T16:17:03;22.50;99.90
4207;DHT22;2117;47.972;7.830;2023-09-18T16:19:30;22.50;99.90
4207;DHT22;2117;47.972;7.830;2023-09-18T16:21:57;22.50;99.90
4207;DHT22;2117;47.972;7.830;2023-09-18T16:24:23;22.50;99.90
4207;DHT22;2117;47.972;7.830;2023-09-18T16:26:48;22.50;99.90
4207;DHT22;2117;47.972;7.830;2023-09-18T16:29:14;22.50;99.90
4207;DHT22;2117;47.972;7.830;2023-09-18T16:31:40;22.30;99.90
4207;DHT22;2117;47.972;7.830;2023-09-18T16:34:05;22.30;99.90
4207;DHT22;2117;47.972;7.830;2023-09-18T16:36:32;22.30;99.90
4207;DHT22;2117;47.972;7.830;2023-09-18T16:38:57;22.30;99.90
4207;DHT22;2117;47.972;7.830;2023-09-18T16:41:23;22.30;99.90
4207;DHT22;2117;47.972;7.830;2023-09-18T16:43:48;22.30;99.90
4207;DHT22;2117;47.972;7.830;2023-09-18T16:46:14;22.20;99.90
4207;DHT22;2117;47.972;7.830;2023-09-18T16:48:39;22.10;99.90
4207;DHT22;2117;47.972;7.830;2023-09-18T16:51:05;22.10;99.90
4207;DHT22;2117;47.972;7.830;2023-09-18T16:53:31;22.00;99.90
4207;DHT22;2117;47.972;7.830;2023-09-18T16:55:57;21.90;99.90
4207;DHT22;2117;47.972;7.830;2023-09-18T16:58:23;21.90;99.90
4207;DHT22;2117;47.972;7.830;2023-09-18T17:00:48;21.80;99.90
4207;DHT22;2117;47.972;7.830;2023-09-18T17:03:14;21.80;99.90
4207;DHT22;2117;47.972;7.830;2023-09-18T17:05:39;21.70;99.90
4207;DHT22;2117;47.972;7.830;2023-09-18T17:08:05;21.70;99.90
4207;DHT22;2117;47.972;7.830;2023-09-18T17:10:32;21.60;99.90
4207;DHT22;2117;47.972;7.830;2023-09-18T17:12:57;21.60;99.90
4207;DHT22;2117;47.972;7.830;2023-09-18T17:15:23;21.50;99.90
4207;DHT22;2117;47.972;7.830;2023-09-18T17:17:48;21.50;99.90
4207;DHT22;2117;47.972;7.830;2023-09-18T17:20:14;21.40;99.90
4207;DHT22;2117;47.972;7.830;2023-09-18T17:22:41;21.30;99.90
4207;DHT22;2117;47.972;7.830;2023-09-18T17:25:07;21.30;99.90
4207;DHT22;2117;47.972;7.830;2023-09-18T17:27:35;21.20;99.90
4207;DHT22;2117;47.972;7.830;2023-09-18T17:30:01;21.10;99.90
4207;DHT22;2117;47.972;7.830;2023-09-18T17:32:27;21.00;99.90
4207;DHT22;2117;47.972;7.830;2023-09-18T17:34:53;21.00;99.90
4207;DHT22;2117;47.972;7.830;2023-09-18T17:37:19;20.90;99.90
4207;DHT22;2117;47.972;7.830;2023-09-18T17:39:44;20.90;99.90
4207;DHT22;2117;47.972;7.830;2023-09-18T17:42:11;20.80;99.90